Terminal Aerodrome Forecast
Issued by NWS

Home | Current Version | Previous Version | Text Only | Print | Product List | Glossary On
Versions: 1 2 3 4 5 6 7 8 9 10 11 12 13 14 15 16 17 18 19 20 21 22 23 24 25 26 27 28 29 30 31
000
FTUS45 KCYS 050902 AAA
TAFAIA
TAF AMD
KAIA 050902Z 0509/0606 21004KT 6SM BR VCFG SCT010
      TEMPO 0509/0513 1SM BR
     FM051500 19006KT P6SM SKC
     FM051800 19008KT P6SM SCT100
     FM060000 15012KT P6SM VCTS BKN060CB BKN100=

USA.gov is the U.S. government's official web portal to all federal, state and local government web resources and services.